Etusivu
METAR-TAF:

METAR-TAF

Lentoasemat :

Brønnøysund, Norja

Leveyspiiri: 65-28N, Pituuspiiri: 012-13E, korkeus merenpinnasta: 0 m

Tämänhetkinen sää

Tämä raportti tehtiin 25 minuuttia sitten, kello 18.50 UTC
Tuuli 18 kn etelästä/kaakosta
Lämpötila 5°C
Kosteus 52%
Ilmanpaine 1009 hPa
Näkyvyys 10 km tai enemmän
Muutamia pilviä 2600 ft:n korkeudessa
Hajonneita pilviä 6600 ft:n korkeudessa

METAR: ENBN 191850Z 15018KT 9999 FEW026 BKN066 05/M04 Q1009

Aika: 20:15 (19:15 UTC)

Sääennuste

Tämä raportti tehtiin 5 tuntia ja 15 minuuttia sitten, kello 14.00 UTC
Ennuste voimassa 19. päivästä klo 15 UTC - 19. päivään klo 20 UTC
Tuuli 15 kn etelästä
Näkyvyys 10 km tai enemmän
Muutamia pilviä 3000 ft:n korkeudessa
Hajonneita pilviä 6000 ft:n korkeudessa

TAF: ENBN 191400Z 1915/1920 17015KT 9999 FEW030 BKN060

Säähavainnot ja -ennusteet yli 4000 lentoasemalta (METAR- ja TAF-raportit).

Käytössä olevat sääasemat on merkitty karttaan keltaisilla ja punaisilla pisteillä.

Aseta hiiri pisteen päälle nähdäksesi sääaseman nimen.

Klikkaa sitten nähdäksesi säähavainnot ja -ennusteet.

Kartan vaihtaminen: klikkaa mustalla rastilla varustettuja vihreitä pisteitä, niin voit zoomata sisään; viivalla varustettua vihreää pistettä, niin voit zoomata ulos tai vihreitä nuolia, niin pääset viereisille kartoille.


METAR-TAF: